This is the latest recevied weather packets stored in our database for station/object WA6ODQ-13. If no packets are shown the sender has not sent any weather packets the latest 10 day(s).
| Time | Temp. | Humidity | Pressure | Rain* | Wind** | Luminosity | Snow |
|---|---|---|---|---|---|---|---|
| 1777414703 | 23.89° C | 45% | 1016.2 hPa | 0 mm | - | 596 W/m² | - |
| 1777414400 | 25° C | 44% | 1016.2 hPa | 0 mm | - | 607 W/m² | - |
| 1777414099 | 25° C | 44% | 1016.4 hPa | 0 mm | - | 619 W/m² | - |
| 1777413794 | 23.89° C | 45% | 1016.3 hPa | 0 mm | - | 631 W/m² | - |
| 1777413489 | 23.33° C | 46% | 1016.5 hPa | 0 mm | - | 641 W/m² | - |
| 1777413186 | 23.33° C | 46% | 1016.5 hPa | 0 mm | - | 656 W/m² | - |
| 1777412881 | 22.78° C | 47% | 1016.8 hPa | 0 mm | - | 691 W/m² | - |
| 1777412575 | 23.89° C | 46% | 1016.7 hPa | 0 mm | - | 174 W/m² | - |
| 1777412273 | 23.89° C | 46% | 1016.8 hPa | 0 mm | - | 706 W/m² | - |
| 1777411969 | 23.89° C | 46% | 1016.8 hPa | 0 mm | - | 207 W/m² | - |
| 1777411668 | 24.44° C | 45% | 1016.9 hPa | 0 mm | - | 716 W/m² | - |
| 1777411363 | 23.33° C | 46% | 1017.1 hPa | 0 mm | - | 716 W/m² | - |
| 1777411063 | 23.33° C | 46% | 1017 hPa | 0 mm | - | 308 W/m² | - |
| 1777410757 | 23.89° C | 46% | 1017.1 hPa | 0 mm | - | 378 W/m² | - |
| 1777410451 | 25° C | 42% | 1017.3 hPa | 0 mm | - | 759 W/m² | - |
| 1777410150 | 23.33° C | 46% | 1017.1 hPa | 0 mm | - | 758 W/m² | - |
| 1777409845 | 24.44° C | 43% | 1017.1 hPa | 0 mm | - | 759 W/m² | - |
| 1777409541 | 22.78° C | 47% | 1017.3 hPa | 0 mm | - | 779 W/m² | - |
| 1777409237 | 22.78° C | 46% | 1017.2 hPa | 0 mm | - | 787 W/m² | - |
| 1777408932 | 23.89° C | 46% | 1017.3 hPa | 0 mm | - | 739 W/m² | - |
| 1777408629 | 23.89° C | 45% | 1017.1 hPa | 0 mm | - | 783 W/m² | - |
| 1777408325 | 24.44° C | 44% | 1017.2 hPa | 0 mm | - | 742 W/m² | - |
| 1777408024 | 23.89° C | 44% | 1017.4 hPa | 0 mm | - | 734 W/m² | - |
| 1777407722 | 23.89° C | 46% | 1017.7 hPa | 0 mm | - | 747 W/m² | - |
| 1777407417 | 23.89° C | 45% | 1017.5 hPa | 0 mm | - | 772 W/m² | - |
* Rain latest hour (hover to see other rain measurements)
** Current wind speed in m/s (hover to see current wind gust speed)